Time;durP1;ratioP1;P1;durP2;ratioP2;P2;SDS_P1;SDS_P2;PMS_P1;PMS_P2;Temp;Humidity;BMP_temperature;BMP_pressure;BME280_temperature;BME280_humidity;BME280_pressure;Samples;Min_cycle;Max_cycle;Signal;HPM_P1;HPM_P2
2022/12/14 00:00:53;;;;;;;;;4.00;4.00;;;;;19.54;53.62;100516.82;105835;1272;20374;-65
2022/12/14 00:03:20;;;;;;;;;4.00;3.00;;;;;19.54;53.68;100513.80;105738;1272;20955;-65
2022/12/14 00:05:48;;;;;;;;;2.00;2.00;;;;;19.55;53.85;100513.14;105777;1276;22604;-64
2022/12/14 00:08:15;;;;;;;;;4.00;4.00;;;;;19.54;53.41;100515.05;105760;1294;18488;-64
2022/12/14 00:10:42;;;;;;;;;2.00;2.00;;;;;19.54;53.51;100509.83;105716;1279;22313;-64
2022/12/14 00:13:10;;;;;;;;;2.00;2.00;;;;;19.54;53.36;100507.58;105759;1279;18378;-64
2022/12/14 00:15:37;;;;;;;;;2.00;2.00;;;;;19.55;53.61;100506.66;105730;1294;20046;-65
2022/12/14 00:18:05;;;;;;;;;4.00;4.00;;;;;19.55;53.47;100501.69;105189;1279;897374;-65
2022/12/14 00:20:32;;;;;;;;;2.00;2.00;;;;;19.54;53.37;100502.42;105784;1280;18868;-63
2022/12/14 00:22:59;;;;;;;;;2.00;2.00;;;;;19.54;53.63;100498.03;105789;1288;19084;-65
2022/12/14 00:25:27;;;;;;;;;2.00;2.00;;;;;19.54;53.56;100493.34;105831;1272;20736;-66
2022/12/14 00:27:54;;;;;;;;;5.00;2.00;;;;;19.54;53.56;100492.63;105792;1280;22614;-65
2022/12/14 00:30:21;;;;;;;;;4.00;4.00;;;;;19.53;53.59;100491.04;105755;1279;18501;-64
2022/12/14 00:32:48;;;;;;;;;3.00;3.00;;;;;19.54;53.42;100486.52;105757;1299;19166;-64
2022/12/14 00:35:16;;;;;;;;;2.00;2.00;;;;;19.53;53.61;100488.36;105761;1279;18358;-65
2022/12/14 00:37:43;;;;;;;;;7.00;4.00;;;;;19.53;53.42;100481.33;105746;1272;21754;-65
2022/12/14 00:40:10;;;;;;;;;;;;;;;19.53;53.40;100478.57;105733;1296;19527;-65
2022/12/14 00:42:38;;;;;;;;;4.00;3.33;;;;;19.53;53.36;100477.35;105739;1293;18455;-65
2022/12/14 00:45:06;;;;;;;;;2.00;2.00;;;;;19.53;53.43;100479.86;105819;1288;20147;-64
2022/12/14 00:47:33;;;;;;;;;2.00;2.00;;;;;19.53;53.46;100475.55;105812;1272;20599;-65
2022/12/14 00:50:00;;;;;;;;;2.00;2.00;;;;;19.52;53.40;100477.77;105790;1280;21851;-63
2022/12/14 00:52:28;;;;;;;;;2.00;2.00;;;;;19.53;53.40;100478.27;105779;1278;22984;-65
2022/12/14 00:54:55;;;;;;;;;1.33;1.33;;;;;19.52;53.56;100476.17;105734;1272;19253;-64
2022/12/14 00:57:22;;;;;;;;;2.00;2.00;;;;;19.52;53.32;100477.25;105773;1286;19890;-64
2022/12/14 00:59:50;;;;;;;;;2.00;2.00;;;;;19.52;53.38;100477.12;105792;1280;20144;-63
2022/12/14 01:02:17;;;;;;;;;2.00;2.00;;;;;19.52;53.43;100474.06;105865;1280;20814;-64
2022/12/14 01:04:44;;;;;;;;;2.00;2.00;;;;;19.50;53.49;100471.08;105802;1286;18929;-64
2022/12/14 01:07:12;;;;;;;;;2.00;2.00;;;;;19.50;53.27;100475.08;105766;1276;18711;-64
2022/12/14 01:09:39;;;;;;;;;3.00;3.00;;;;;19.51;53.52;100479.05;105817;1272;20909;-65
2022/12/14 01:12:06;;;;;;;;;4.00;3.00;;;;;19.50;53.58;100479.09;105763;1290;19631;-66
2022/12/14 01:14:34;;;;;;;;;4.00;2.00;;;;;19.50;53.32;100480.38;105762;1294;22187;-65
2022/12/14 01:17:01;;;;;;;;;2.00;2.00;;;;;19.50;53.28;100478.34;105777;1280;19304;-65
2022/12/14 01:19:28;;;;;;;;;2.00;2.00;;;;;19.49;53.46;100474.63;105764;1272;19612;-65
2022/12/14 01:21:56;;;;;;;;;3.00;3.00;;;;;19.50;53.33;100478.03;105730;1301;22742;-64
2022/12/14 01:24:23;;;;;;;;;4.00;4.00;;;;;19.49;53.52;100481.70;105784;1294;19355;-64
2022/12/14 01:26:50;;;;;;;;;4.00;3.00;;;;;19.50;53.52;100489.62;105835;1272;22691;-65
2022/12/14 01:29:17;;;;;;;;;4.00;2.00;;;;;19.49;53.27;100487.17;105834;1286;20071;-65
2022/12/14 01:31:45;;;;;;;;;2.00;2.00;;;;;19.49;53.33;100488.59;105893;1279;19297;-65
2022/12/14 01:34:12;;;;;;;;;4.00;4.00;;;;;19.48;53.45;100482.92;105831;1294;19901;-65
2022/12/14 01:36:39;;;;;;;;;2.00;2.00;;;;;19.48;53.40;100481.64;105739;1272;19999;-65
2022/12/14 01:39:08;;;;;;;;;3.00;3.00;;;;;19.48;53.26;100478.52;105830;1294;19300;-66
2022/12/14 01:41:35;;;;;;;;;4.00;4.00;;;;;19.48;53.43;100479.42;105801;1272;20599;-65
2022/12/14 01:44:02;;;;;;;;;1.00;1.00;;;;;19.48;53.26;100478.75;105758;1285;20055;-63
2022/12/14 01:46:30;;;;;;;;;4.00;4.00;;;;;19.48;53.21;100475.86;105817;1280;20658;-65
2022/12/14 01:48:57;;;;;;;;;4.00;4.00;;;;;19.48;53.19;100473.36;105749;1295;19682;-66
2022/12/14 01:51:24;;;;;;;;;4.00;4.00;;;;;19.47;53.20;100471.21;105737;1280;18593;-64
2022/12/14 01:53:52;;;;;;;;;4.00;4.00;;;;;19.47;53.13;100474.55;105772;1289;19502;-64
2022/12/14 01:56:19;;;;;;;;;4.00;4.00;;;;;19.47;53.05;100472.67;105818;1294;18390;-65
2022/12/14 01:58:46;;;;;;;;;4.00;2.00;;;;;19.47;53.28;100470.16;105852;1280;18926;-66
2022/12/14 02:01:14;;;;;;;;;4.00;2.00;;;;;19.47;53.34;100470.00;105768;1293;19275;-64
2022/12/14 02:03:41;;;;;;;;;2.00;2.00;;;;;19.46;53.07;100469.35;105710;1286;20897;-64
2022/12/14 02:06:08;;;;;;;;;3.00;3.00;;;;;19.45;53.30;100467.11;105791;1279;19989;-65
2022/12/14 02:08:36;;;;;;;;;4.00;4.00;;;;;19.46;53.43;100464.67;105759;1272;20741;-64
2022/12/14 02:11:03;;;;;;;;;4.00;4.00;;;;;19.46;53.17;100459.73;105735;1294;18217;-65
2022/12/14 02:13:30;;;;;;;;;4.00;4.00;;;;;19.46;53.15;100459.73;105777;1286;21978;-65
2022/12/14 02:15:57;;;;;;;;;4.00;4.00;;;;;19.45;53.02;100456.23;105766;1286;19264;-65
2022/12/14 02:18:25;;;;;;;;;2.00;2.00;;;;;19.45;53.26;100449.95;105738;1273;18458;-65
2022/12/14 02:20:52;;;;;;;;;2.00;2.00;;;;;19.45;53.21;100445.20;105797;1280;18748;-65
2022/12/14 02:23:19;;;;;;;;;2.00;2.00;;;;;19.46;53.17;100439.88;105751;1280;20745;-65
2022/12/14 02:25:47;;;;;;;;;2.00;2.00;;;;;19.45;53.18;100438.67;105807;1289;22709;-65
2022/12/14 02:28:14;;;;;;;;;4.00;4.00;;;;;19.45;53.14;100439.02;105786;1279;20062;-65
2022/12/14 02:30:42;;;;;;;;;2.00;2.00;;;;;19.45;52.95;100440.31;105716;1293;19263;-65
2022/12/14 02:33:09;;;;;;;;;5.00;4.50;;;;;19.44;52.94;100438.75;105788;1294;19614;-65
2022/12/14 02:35:36;;;;;;;;;4.50;4.00;;;;;19.44;53.01;100434.77;105796;1280;18701;-64
2022/12/14 02:38:04;;;;;;;;;4.00;3.00;;;;;19.44;52.96;100432.48;105765;1295;19283;-65
2022/12/14 02:40:31;;;;;;;;;4.00;4.00;;;;;19.43;52.88;100432.35;105775;1294;19901;-65
2022/12/14 02:42:58;;;;;;;;;4.00;3.00;;;;;19.44;53.10;100429.40;105757;1272;18650;-65
2022/12/14 02:45:25;;;;;;;;;5.00;4.00;;;;;19.45;52.98;100424.95;105738;1278;21939;-64
2022/12/14 02:47:53;;;;;;;;;4.00;2.00;;;;;19.43;53.07;100424.15;105794;1294;18387;-66
2022/12/14 02:50:20;;;;;;;;;2.00;2.00;;;;;19.44;53.04;100418.87;105767;1286;18532;-64
2022/12/14 02:52:48;;;;;;;;;4.50;4.00;;;;;19.42;52.84;100424.85;105788;1286;22340;-64
2022/12/14 02:55:15;;;;;;;;;4.00;4.00;;;;;19.43;53.15;100428.75;105755;1294;18438;-65
2022/12/14 02:57:42;;;;;;;;;4.00;4.00;;;;;19.43;52.94;100430.42;105798;1294;18543;-65
2022/12/14 03:00:10;;;;;;;;;4.00;4.00;;;;;19.43;53.00;100431.34;105921;1279;20676;-65
2022/12/14 03:02:37;;;;;;;;;5.00;4.00;;;;;19.43;52.86;100434.02;105861;1272;18384;-64
2022/12/14 03:05:05;;;;;;;;;5.00;5.00;;;;;19.42;52.91;100431.75;105815;1286;18870;-65
2022/12/14 03:07:32;;;;;;;;;5.00;4.00;;;;;19.42;52.89;100428.48;105766;1279;20914;-65
2022/12/14 03:09:59;;;;;;;;;2.00;2.00;;;;;19.42;52.70;100431.04;105717;1288;19478;-65
2022/12/14 03:12:27;;;;;;;;;5.00;5.00;;;;;19.42;52.93;100436.64;105761;1279;19925;-65
2022/12/14 03:14:54;;;;;;;;;4.00;4.00;;;;;19.42;52.85;100437.21;105919;1272;20725;-64
2022/12/14 03:17:21;;;;;;;;;3.00;3.00;;;;;19.41;52.89;100432.27;105792;1283;23889;-64
2022/12/14 03:19:48;;;;;;;;;7.00;5.00;;;;;19.42;52.90;100430.36;105748;1278;19992;-64
2022/12/14 03:22:16;;;;;;;;;4.00;4.00;;;;;19.41;52.95;100427.55;105767;1301;19345;-64
2022/12/14 03:24:43;;;;;;;;;5.00;4.00;;;;;19.42;52.71;100431.05;105723;1288;22109;-65
2022/12/14 03:27:10;;;;;;;;;4.00;2.00;;;;;19.41;52.70;100436.41;105805;1294;18826;-64
2022/12/14 03:29:38;;;;;;;;;4.00;4.00;;;;;19.41;52.77;100434.83;105842;1280;20806;-64
2022/12/14 03:32:05;;;;;;;;;4.00;4.00;;;;;19.41;52.51;100434.98;105870;1276;18541;-64
2022/12/14 03:34:32;;;;;;;;;4.00;4.00;;;;;19.41;52.85;100431.93;105906;1286;18711;-64
2022/12/14 03:37:00;;;;;;;;;4.00;4.00;;;;;19.40;52.77;100432.19;105904;1272;20804;-65
2022/12/14 03:39:27;;;;;;;;;5.00;5.00;;;;;19.41;52.88;100437.34;105887;1286;20024;-64
2022/12/14 03:41:54;;;;;;;;;4.00;4.00;;;;;19.39;52.60;100437.56;105859;1278;19997;-64
2022/12/14 03:44:22;;;;;;;;;4.00;4.00;;;;;19.39;52.76;100434.71;105851;1295;19303;-64
2022/12/14 03:46:49;;;;;;;;;4.00;4.00;;;;;19.40;52.69;100439.45;105865;1280;19282;-65
2022/12/14 03:49:16;;;;;;;;;4.00;4.00;;;;;19.40;52.56;100437.27;105847;1278;22557;-64
2022/12/14 03:51:44;;;;;;;;;5.00;5.00;;;;;19.40;52.80;100440.41;105866;1280;19449;-64
2022/12/14 03:54:11;;;;;;;;;4.00;4.00;;;;;19.38;52.64;100435.46;105886;1295;18376;-64
2022/12/14 03:56:38;;;;;;;;;4.00;4.00;;;;;19.39;52.64;100432.52;105842;1280;20080;-64
2022/12/14 03:59:06;;;;;;;;;3.00;2.00;;;;;19.39;52.71;100433.25;105887;1278;19374;-66
2022/12/14 04:01:33;;;;;;;;;4.00;4.00;;;;;19.38;52.47;100435.11;105862;1272;18388;-65
2022/12/14 04:04:00;;;;;;;;;7.00;5.00;;;;;19.38;52.52;100439.27;105838;1289;18581;-65
2022/12/14 04:06:28;;;;;;;;;4.00;4.00;;;;;19.38;52.65;100440.16;105933;1278;20834;-64
2022/12/14 04:08:55;;;;;;;;;8.00;5.00;;;;;19.39;52.59;100436.68;105746;1280;21020;-65
2022/12/14 04:19:37;;;;;;;;;4.00;2.00;;;;;19.37;52.42;100432.38;105762;1301;18214;-65
2022/12/14 04:22:05;;;;;;;;;4.00;4.00;;;;;19.37;52.60;100437.03;105880;1278;19402;-65
2022/12/14 04:27:17;;;;;;;;;4.00;4.00;;;;;19.37;52.57;100437.10;105878;1272;18494;-64
2022/12/14 04:29:57;;;;;;;;;5.00;5.00;;;;;19.37;52.31;100439.78;105797;1280;19285;-64
2022/12/14 04:32:24;;;;;;;;;2.00;2.00;;;;;19.37;52.43;100441.66;105838;1280;19536;-66
2022/12/14 04:34:51;;;;;;;;;4.00;4.00;;;;;19.36;52.32;100443.12;105824;1289;19856;-65
2022/12/14 04:37:19;;;;;;;;;4.00;4.00;;;;;19.37;52.29;100440.53;105837;1272;19238;-64
2022/12/14 04:39:46;;;;;;;;;4.00;4.00;;;;;19.37;52.17;100436.02;105734;1296;22354;-64
2022/12/14 04:42:13;;;;;;;;;4.50;4.00;;;;;19.36;52.48;100433.74;105902;1288;19933;-65
2022/12/14 04:44:41;;;;;;;;;4.00;4.00;;;;;19.36;52.37;100431.02;105837;1295;21870;-65
2022/12/14 04:47:08;;;;;;;;;5.00;4.00;;;;;19.36;52.24;100432.62;105842;1280;18881;-65
2022/12/14 04:49:35;;;;;;;;;4.00;4.00;;;;;19.37;52.14;100433.67;105860;1279;19278;-64
2022/12/14 04:52:04;;;;;;;;;2.00;2.00;;;;;19.36;52.17;100436.22;105881;1286;19466;-64
2022/12/14 04:54:32;;;;;;;;;7.00;4.00;;;;;19.35;52.36;100433.27;105882;1273;18629;-64
2022/12/14 04:56:59;;;;;;;;;5.00;4.00;;;;;19.36;52.31;100438.51;105940;1295;20989;-66
2022/12/14 04:59:26;;;;;;;;;5.00;5.00;;;;;19.36;52.31;100436.33;105828;1293;19404;-64
2022/12/14 05:01:54;;;;;;;;;4.00;4.00;;;;;19.35;52.40;100433.48;105867;1280;18273;-64
2022/12/14 05:04:21;;;;;;;;;5.00;5.00;;;;;19.35;52.34;100427.91;105837;1280;22661;-65
2022/12/14 05:06:48;;;;;;;;;4.00;4.00;;;;;19.36;52.16;100429.64;105823;1286;19294;-65
2022/12/14 05:09:16;;;;;;;;;7.00;4.00;;;;;19.35;52.32;100425.53;105843;1294;18451;-65
2022/12/14 05:11:43;;;;;;;;;4.00;4.00;;;;;19.35;52.10;100424.03;105890;1279;20013;-64
2022/12/14 05:14:10;;;;;;;;;5.00;4.00;;;;;19.35;52.29;100421.77;105851;1276;19285;-64
2022/12/14 05:16:38;;;;;;;;;4.50;4.50;;;;;19.34;52.37;100414.56;105866;1279;19668;-65
2022/12/14 05:19:05;;;;;;;;;4.00;4.00;;;;;19.34;52.23;100415.89;105858;1280;19113;-65
2022/12/14 05:24:23;;;;;;;;;4.00;4.00;;;;;19.35;52.07;100409.84;105781;1294;18514;-65
2022/12/14 05:26:50;;;;;;;;;4.00;4.00;;;;;19.34;52.12;100409.88;105911;1298;20318;-65
2022/12/14 05:29:17;;;;;;;;;4.00;4.00;;;;;19.35;52.23;100408.20;105869;1293;20691;-64
2022/12/14 05:31:45;;;;;;;;;4.00;4.00;;;;;19.34;52.26;100407.70;105893;1271;18431;-65
2022/12/14 05:34:12;;;;;;;;;7.00;4.50;;;;;19.34;52.04;100405.70;105886;1280;18510;-65
2022/12/14 05:36:39;;;;;;;;;2.00;2.00;;;;;19.34;52.21;100397.41;105871;1280;21044;-65
2022/12/14 05:39:07;;;;;;;;;4.00;4.00;;;;;19.34;52.26;100397.38;105906;1295;18449;-65
2022/12/14 05:41:34;;;;;;;;;5.00;4.00;;;;;19.33;52.01;100392.41;105830;1279;18515;-65
2022/12/14 05:44:01;;;;;;;;;7.00;4.00;;;;;19.34;52.05;100395.07;105840;1279;22014;-64
2022/12/14 05:46:28;;;;;;;;;7.00;5.00;;;;;19.33;51.86;100393.16;105829;1288;18350;-65
2022/12/14 05:48:56;;;;;;;;;4.00;4.00;;;;;19.33;52.06;100398.52;105800;1280;18536;-65
2022/12/14 05:51:24;;;;;;;;;2.00;2.00;;;;;19.32;52.16;100397.23;105752;1280;21083;-65
2022/12/14 05:53:51;;;;;;;;;5.00;5.00;;;;;19.33;52.22;100396.83;105859;1294;18348;-65
2022/12/14 05:56:18;;;;;;;;;5.00;4.00;;;;;19.33;51.99;100394.28;105757;1281;19832;-64
2022/12/14 05:58:46;;;;;;;;;4.00;4.00;;;;;19.33;52.06;100395.20;105717;1279;23996;-63
2022/12/14 06:01:13;;;;;;;;;2.00;2.00;;;;;19.35;51.77;100397.08;105766;1280;18442;-64
2022/12/14 06:03:40;;;;;;;;;11.00;10.00;;;;;19.39;52.04;100398.37;105732;1279;20182;-65
2022/12/14 06:06:08;;;;;;;;;13.00;13.00;;;;;19.45;52.44;100400.24;105758;1294;20883;-65
2022/12/14 06:08:35;;;;;;;;;25.00;23.50;;;;;19.49;53.06;100397.06;105731;1294;18506;-65
2022/12/14 06:11:02;;;;;;;;;65.00;52.00;;;;;19.53;53.97;100404.64;105775;1279;20249;-65
2022/12/14 06:13:30;;;;;;;;;68.50;52.50;;;;;19.52;54.69;100405.34;105775;1280;19252;-64
2022/12/14 06:15:57;;;;;;;;;54.00;46.00;;;;;19.49;55.02;100403.79;105801;1294;24121;-64
2022/12/14 06:18:24;;;;;;;;;42.00;39.00;;;;;19.45;54.95;100403.16;105776;1285;18695;-64
2022/12/14 06:20:52;;;;;;;;;36.00;33.00;;;;;19.44;54.86;100406.55;105685;1275;21796;-65
2022/12/14 06:23:19;;;;;;;;;33.00;26.00;;;;;19.45;54.73;100411.30;105828;1295;20020;-64
2022/12/14 06:25:46;;;;;;;;;28.00;27.00;;;;;19.44;54.60;100410.20;105831;1294;21932;-64
2022/12/14 06:28:13;;;;;;;;;29.00;28.00;;;;;19.44;54.43;100409.23;105838;1280;19266;-65
2022/12/14 06:30:41;;;;;;;;;23.50;20.50;;;;;19.43;54.09;100403.20;105767;1288;18792;-65
2022/12/14 06:33:08;;;;;;;;;21.00;20.00;;;;;19.44;54.27;100408.04;105902;1294;18650;-64
2022/12/14 06:35:35;;;;;;;;;18.00;16.00;;;;;19.42;53.93;100406.92;105843;1279;19302;-65
2022/12/14 06:38:03;;;;;;;;;16.00;16.00;;;;;19.42;54.11;100410.96;105847;1280;19470;-65
2022/12/14 06:40:30;;;;;;;;;17.00;16.00;;;;;19.42;54.10;100411.27;105858;1280;18549;-65
2022/12/14 06:42:57;;;;;;;;;17.00;15.00;;;;;19.41;53.91;100405.61;105772;1295;19337;-64
2022/12/14 06:45:25;;;;;;;;;13.00;11.00;;;;;19.42;54.10;100407.33;105796;1291;20687;-64
2022/12/14 06:47:52;;;;;;;;;18.00;16.00;;;;;19.41;53.91;100408.69;105914;1295;18576;-65
2022/12/14 06:50:19;;;;;;;;;11.00;10.00;;;;;19.43;53.97;100409.09;105856;1273;20790;-65
2022/12/14 06:52:47;;;;;;;;;10.50;10.50;;;;;19.43;53.87;100409.26;105852;1294;19952;-66
2022/12/14 06:55:14;;;;;;;;;13.33;10.33;;;;;19.43;53.70;100410.48;105831;1294;18583;-64
2022/12/14 06:57:42;;;;;;;;;11.00;10.00;;;;;19.44;53.72;100411.30;105856;1289;20798;-63
2022/12/14 07:00:11;;;;;;;;;11.00;10.00;;;;;19.44;53.96;100409.97;105726;1272;18498;-63
2022/12/14 07:02:38;;;;;;;;;8.00;8.00;;;;;19.42;53.93;100409.88;105786;1280;18631;-64
2022/12/14 07:05:05;;;;;;;;;10.00;8.00;;;;;19.41;53.77;100411.74;105781;1280;20798;-63
2022/12/14 07:07:33;;;;;;;;;11.00;10.00;;;;;19.41;53.78;100418.54;105747;1280;18359;-64
2022/12/14 07:10:00;;;;;;;;;7.50;7.00;;;;;19.39;53.80;100418.38;105772;1286;21177;-64
2022/12/14 07:12:27;;;;;;;;;8.00;8.00;;;;;19.39;53.68;100418.04;105804;1279;22883;-64
2022/12/14 07:14:55;;;;;;;;;11.00;8.00;;;;;19.39;53.70;100423.13;105903;1276;23421;-64
2022/12/14 07:17:22;;;;;;;;;8.00;8.00;;;;;19.38;53.72;100423.70;105802;1272;18662;-65
2022/12/14 07:19:49;;;;;;;;;8.00;8.00;;;;;19.39;53.68;100427.02;105690;1273;20736;-65
2022/12/14 07:22:17;;;;;;;;;10.00;10.00;;;;;19.39;53.54;100426.91;105769;1297;20962;-64
2022/12/14 07:24:44;;;;;;;;;5.00;5.00;;;;;19.38;53.52;100426.39;105838;1272;18575;-64
2022/12/14 07:27:11;;;;;;;;;8.00;8.00;;;;;19.38;53.36;100421.59;105780;1285;22397;-64
2022/12/14 07:29:38;;;;;;;;;7.00;7.00;;;;;19.37;53.41;100421.98;105875;1272;19575;-65
2022/12/14 07:32:06;;;;;;;;;6.00;6.00;;;;;19.37;53.54;100429.99;105818;1272;19844;-65
2022/12/14 07:34:33;;;;;;;;;7.00;7.00;;;;;19.38;53.56;100432.64;105864;1294;20740;-65
2022/12/14 07:37:01;;;;;;;;;8.00;8.00;;;;;19.38;53.68;100431.55;105824;1295;18750;-65
2022/12/14 07:39:28;;;;;;;;;7.00;5.00;;;;;19.37;53.69;100436.35;105785;1272;20043;-64
2022/12/14 07:41:56;;;;;;;;;7.00;5.00;;;;;19.37;53.60;100434.17;105782;1279;19336;-64
2022/12/14 07:44:23;;;;;;;;;9.00;7.50;;;;;19.37;53.36;100440.36;105761;1280;19730;-65
2022/12/14 07:46:50;;;;;;;;;5.00;5.00;;;;;19.36;53.47;100433.61;105743;1279;18695;-64
2022/12/14 07:49:17;;;;;;;;;7.00;5.00;;;;;19.35;53.47;100429.84;105670;1279;19506;-65
2022/12/14 07:51:45;;;;;;;;;8.00;7.00;;;;;19.37;53.14;100426.77;105676;1294;18405;-65
2022/12/14 07:54:12;;;;;;;;;4.00;4.00;;;;;19.37;53.34;100428.37;105795;1293;23372;-65
2022/12/14 07:56:40;;;;;;;;;6.00;5.00;;;;;19.36;53.31;100428.01;105693;1273;22494;-65
2022/12/14 07:59:08;;;;;;;;;;;;;;;19.36;53.18;100427.97;105750;1280;19587;-65
2022/12/14 08:01:35;;;;;;;;;7.00;7.00;;;;;19.36;53.09;100428.27;105831;1294;19380;-65
2022/12/14 08:04:03;;;;;;;;;7.00;7.00;;;;;19.37;53.20;100427.82;105814;1280;20980;-64
2022/12/14 08:06:31;;;;;;;;;4.00;4.00;;;;;19.39;53.41;100423.64;105896;1280;19635;-65
2022/12/14 08:08:59;;;;;;;;;4.00;4.00;;;;;19.41;53.41;100427.42;105911;1273;20115;-66
2022/12/14 08:11:26;;;;;;;;;7.00;5.00;;;;;19.43;53.26;100424.44;105874;1295;19266;-66
2022/12/14 08:13:53;;;;;;;;;5.00;5.00;;;;;19.43;53.48;100424.10;105840;1280;19722;-64
2022/12/14 08:16:21;;;;;;;;;7.00;5.00;;;;;19.43;53.57;100421.22;105834;1286;22327;-65
2022/12/14 08:18:48;;;;;;;;;5.00;4.50;;;;;19.42;53.58;100420.00;105746;1286;20786;-65
2022/12/14 08:21:17;;;;;;;;;5.00;5.00;;;;;19.43;53.36;100416.09;105767;1295;20103;-64
2022/12/14 08:23:45;;;;;;;;;5.00;5.00;;;;;19.45;53.66;100418.36;105523;1272;19924;-63
2022/12/14 08:26:12;;;;;;;;;4.00;4.00;;;;;19.44;53.53;100418.30;105746;1292;19553;-62
2022/12/14 08:28:39;;;;;;;;;5.00;5.00;;;;;19.47;53.84;100412.57;105773;1279;19274;-65
2022/12/14 08:31:06;;;;;;;;;5.00;4.00;;;;;19.48;53.85;100413.81;105808;1272;20185;-65
2022/12/14 08:33:34;;;;;;;;;4.00;4.00;;;;;19.48;53.82;100414.47;105663;1294;21070;-65
2022/12/14 08:36:01;;;;;;;;;5.00;5.00;;;;;19.47;53.93;100415.46;105770;1295;18568;-65
2022/12/14 08:38:29;;;;;;;;;4.50;4.00;;;;;19.46;53.94;100416.45;105751;1280;18541;-66
2022/12/14 08:40:56;;;;;;;;;4.00;4.00;;;;;19.46;53.89;100416.70;105825;1295;19285;-66
2022/12/14 08:43:23;;;;;;;;;4.00;4.00;;;;;19.45;54.01;100417.31;105742;1280;19598;-65
2022/12/14 08:45:51;;;;;;;;;4.00;4.00;;;;;19.45;53.87;100412.45;105749;1280;21811;-66
2022/12/14 08:48:18;;;;;;;;;5.00;5.00;;;;;19.44;53.69;100410.31;105800;1295;19277;-66
2022/12/14 08:50:45;;;;;;;;;5.00;5.00;;;;;19.44;53.70;100410.00;105760;1272;22797;-65
2022/12/14 08:53:13;;;;;;;;;4.00;4.00;;;;;19.44;53.31;100411.09;105722;1278;18700;-64
2022/12/14 08:55:40;;;;;;;;;4.00;4.00;;;;;19.47;53.66;100407.89;105733;1279;19293;-65
2022/12/14 08:58:07;;;;;;;;;6.00;6.00;;;;;19.45;53.34;100404.60;105610;1276;18573;-66
2022/12/14 09:00:37;;;;;;;;;4.00;4.00;;;;;19.43;53.26;100396.14;105750;1286;23391;-66
2022/12/14 09:03:04;;;;;;;;;4.00;4.00;;;;;19.43;53.29;100392.03;105802;1280;20819;-63
2022/12/14 09:05:32;;;;;;;;;4.00;4.00;;;;;19.43;53.05;100391.99;105710;1280;18558;-64
2022/12/14 09:07:59;;;;;;;;;7.00;5.00;;;;;19.42;52.77;100389.18;105717;1279;21502;-65
2022/12/14 09:10:26;;;;;;;;;5.00;5.00;;;;;19.42;52.70;100379.13;105820;1285;20628;-66
2022/12/14 09:12:54;;;;;;;;;4.50;4.00;;;;;19.41;52.67;100382.64;105750;1295;21521;-65
2022/12/14 09:15:21;;;;;;;;;4.00;4.00;;;;;19.39;52.97;100378.46;105763;1280;20063;-66
2022/12/14 09:17:49;;;;;;;;;5.00;4.00;;;;;19.40;52.90;100379.62;105786;1289;19425;-65
2022/12/14 09:20:17;;;;;;;;;6.33;4.33;;;;;19.39;53.06;100377.92;105729;1286;18412;-65
2022/12/14 09:22:45;;;;;;;;;4.00;4.00;;;;;19.38;52.99;100376.25;105698;1280;18482;-66
2022/12/14 09:25:12;;;;;;;;;5.00;5.00;;;;;19.37;52.97;100370.59;105725;1272;19341;-64
2022/12/14 09:27:40;;;;;;;;;7.00;5.00;;;;;19.36;52.81;100366.89;105738;1286;23896;-64
2022/12/14 09:30:07;;;;;;;;;8.00;5.00;;;;;19.37;52.94;100370.01;105783;1292;20046;-66
2022/12/14 09:32:34;;;;;;;;;4.50;4.50;;;;;19.36;52.46;100364.72;105688;1294;22780;-63
2022/12/14 09:35:02;;;;;;;;;5.00;5.00;;;;;19.36;52.43;100364.14;105679;1278;20890;-66
2022/12/14 09:37:29;;;;;;;;;7.00;5.00;;;;;19.38;52.87;100363.61;105598;1272;18417;-64
2022/12/14 09:39:56;;;;;;;;;17.00;13.00;;;;;19.41;52.67;100356.73;105768;1272;19300;-65
2022/12/14 09:42:24;;;;;;;;;31.00;26.00;;;;;19.43;52.53;100353.73;105847;1280;18624;-65
2022/12/14 09:44:52;;;;;;;;;91.00;67.00;;;;;19.46;52.79;100347.39;105886;1272;20257;-63
2022/12/14 09:47:19;;;;;;;;;71.00;52.00;;;;;19.48;52.85;100347.95;105817;1278;20656;-64
2022/12/14 09:49:46;;;;;;;;;53.50;43.00;;;;;19.46;52.73;100340.18;105775;1273;19948;-65
2022/12/14 09:52:14;;;;;;;;;47.00;36.00;;;;;19.46;52.44;100337.39;105685;1295;22004;-64
2022/12/14 09:54:42;;;;;;;;;;;;;;;19.47;52.39;100331.17;105730;1272;19939;-65
2022/12/14 09:57:10;;;;;;;;;50.00;36.00;;;;;19.49;52.81;100324.77;105803;1289;20039;-66
2022/12/14 09:59:37;;;;;;;;;34.00;30.00;;;;;19.48;52.66;100321.31;105745;1272;23502;-66
2022/12/14 10:02:05;;;;;;;;;32.00;26.00;;;;;19.46;52.48;100316.30;105742;1272;19287;-65
2022/12/14 10:04:32;;;;;;;;;24.00;21.00;;;;;19.47;52.20;100305.45;105759;1280;20323;-65
2022/12/14 10:07:00;;;;;;;;;18.33;16.00;;;;;19.47;52.19;100304.33;105743;1280;20018;-65
2022/12/14 10:09:27;;;;;;;;;20.00;16.00;;;;;19.50;52.48;100296.08;105797;1272;21996;-65
2022/12/14 10:11:54;;;;;;;;;17.00;13.00;;;;;19.49;52.52;100294.11;105816;1280;20090;-64
2022/12/14 10:14:22;;;;;;;;;14.50;12.00;;;;;19.50;53.02;100288.80;105749;1272;18703;-65
2022/12/14 10:16:49;;;;;;;;;15.50;12.00;;;;;19.51;53.13;100280.78;105705;1276;22675;-66
2022/12/14 10:19:16;;;;;;;;;13.00;13.00;;;;;19.51;53.26;100275.30;105674;1294;18549;-64
2022/12/14 10:21:45;;;;;;;;;11.00;11.00;;;;;19.51;53.22;100270.42;105804;1290;20134;-65
2022/12/14 10:24:13;;;;;;;;;10.00;8.00;;;;;19.53;53.54;100266.24;105695;1295;19177;-64
2022/12/14 10:26:41;;;;;;;;;13.50;11.00;;;;;19.52;53.25;100262.88;105724;1272;20881;-64
2022/12/14 10:29:08;;;;;;;;;10.00;10.00;;;;;19.53;53.41;100259.31;105621;1290;19601;-63
2022/12/14 10:31:35;;;;;;;;;11.00;10.00;;;;;19.52;53.50;100255.08;105619;1279;20870;-63
2022/12/14 10:34:03;;;;;;;;;13.50;13.00;;;;;19.50;53.45;100256.88;105608;1295;22690;-63
2022/12/14 10:36:30;;;;;;;;;;;;;;;19.50;53.31;100248.63;105707;1289;18593;-67
2022/12/14 10:38:58;;;;;;;;;8.00;8.00;;;;;19.52;52.95;100247.29;105748;1294;20818;-65
2022/12/14 10:41:25;;;;;;;;;8.00;7.00;;;;;19.52;53.01;100246.59;105747;1288;19223;-64
2022/12/14 10:43:53;;;;;;;;;7.00;7.00;;;;;19.54;53.43;100240.91;105848;1286;18499;-66
2022/12/14 10:46:21;;;;;;;;;7.00;6.00;;;;;19.55;53.50;100236.59;105732;1295;20811;-65
2022/12/14 10:48:49;;;;;;;;;13.00;8.00;;;;;19.55;53.52;100237.14;105627;1272;18238;-65
2022/12/14 10:51:16;;;;;;;;;11.00;8.00;;;;;19.55;53.44;100234.95;105677;1295;18420;-65
2022/12/14 10:53:44;;;;;;;;;7.00;7.00;;;;;19.53;53.46;100231.38;105774;1280;19286;-66
2022/12/14 10:56:11;;;;;;;;;8.00;7.00;;;;;19.50;53.10;100226.63;105747;1276;18539;-64
2022/12/14 10:58:39;;;;;;;;;5.00;5.00;;;;;19.51;52.75;100225.70;105568;1293;18651;-64
2022/12/14 11:01:07;;;;;;;;;8.00;8.00;;;;;19.50;52.96;100220.08;105624;1280;21005;-64
2022/12/14 11:03:34;;;;;;;;;;;;;;;19.51;53.10;100220.80;105816;1280;20987;-64
2022/12/14 11:06:01;;;;;;;;;8.00;7.00;;;;;19.51;52.91;100221.16;105821;1278;19580;-65
2022/12/14 11:08:28;;;;;;;;;10.00;7.00;;;;;19.51;53.20;100221.81;105674;1294;21525;-63
2022/12/14 11:10:56;;;;;;;;;7.00;6.00;;;;;19.53;53.13;100224.59;105727;1272;19619;-65
2022/12/14 11:13:23;;;;;;;;;8.00;8.00;;;;;19.51;52.70;100222.25;105673;1272;22220;-65
2022/12/14 11:15:51;;;;;;;;;8.00;7.00;;;;;19.49;52.93;100223.30;105709;1280;19268;-66
2022/12/14 11:18:19;;;;;;;;;5.00;5.00;;;;;19.49;53.02;100219.17;105869;1294;19596;-66
2022/12/14 11:20:46;;;;;;;;;4.00;4.00;;;;;19.52;52.91;100217.73;105766;1272;20036;-66
2022/12/14 11:23:13;;;;;;;;;7.00;7.00;;;;;19.54;53.03;100222.58;105753;1279;21998;-66
2022/12/14 11:25:40;;;;;;;;;5.00;5.00;;;;;19.55;53.32;100216.85;105784;1272;19638;-65
2022/12/14 11:28:08;;;;;;;;;9.00;6.00;;;;;19.57;53.72;100219.91;105723;1273;20011;-66